Time;durP1;ratioP1;P1;durP2;ratioP2;P2;SDS_P1;SDS_P2;PMS_P1;PMS_P2;Temp;Humidity;BMP_temperature;BMP_pressure;BME280_temperature;BME280_humidity;BME280_pressure;Samples;Min_cycle;Max_cycle;Signal;HPM_P1;HPM_P2
2022/10/14 00:01:54;;;;;;;6.15;2.60;;;18.60;67.10;;;;;;2470465;53;20940;-76
2022/10/14 00:04:22;;;;;;;7.37;3.10;;;18.60;67.10;;;;;;2343726;53;20908;-76
2022/10/14 00:06:48;;;;;;;5.20;2.42;;;18.60;67.10;;;;;;2342481;53;20928;-76
2022/10/14 00:09:14;;;;;;;5.75;2.95;;;18.60;67.20;;;;;;2590336;53;20944;-76
2022/10/14 00:11:40;;;;;;;4.50;2.83;;;18.60;67.10;;;;;;2416758;53;20925;-76
2022/10/14 00:14:11;;;;;;;5.47;3.20;;;18.60;67.10;;;;;;2344178;53;20984;-76
2022/10/14 00:16:38;;;;;;;4.87;2.90;;;18.60;67.00;;;;;;2343422;53;20944;-76
2022/10/14 00:19:05;;;;;;;5.30;2.60;;;18.60;67.00;;;;;;2412388;53;21587;-77
2022/10/14 00:21:34;;;;;;;3.72;2.45;;;18.60;67.10;;;;;;2516783;52;20974;-76
2022/10/14 00:24:01;;;;;;;5.65;2.60;;;18.60;67.00;;;;;;2556030;53;20972;-77
2022/10/14 00:26:32;;;;;;;4.22;3.12;;;18.60;67.10;;;;;;2490463;53;20916;-76
2022/10/14 00:28:59;;;;;;;7.50;3.55;;;18.60;67.00;;;;;;2482346;52;20995;-76
2022/10/14 00:31:26;;;;;;;6.10;3.00;;;18.60;67.00;;;;;;2442349;53;20927;-76
2022/10/14 00:33:52;;;;;;;4.78;2.60;;;18.70;67.10;;;;;;2343051;53;21580;-76
2022/10/14 00:36:20;;;;;;;5.37;3.12;;;18.60;67.00;;;;;;2344252;54;20928;-76
2022/10/14 00:38:47;;;;;;;4.68;3.28;;;18.60;67.00;;;;;;2345954;53;20954;-77
2022/10/14 00:41:17;;;;;;;4.80;2.58;;;18.60;67.00;;;;;;2343613;53;20944;-76
2022/10/14 00:45:15;;;;;;;5.70;2.55;;;18.60;67.10;;;;;;2342376;53;20924;-77
2022/10/14 00:47:41;;;;;;;4.57;2.17;;;18.60;66.70;;;;;;2346292;53;21389;-77
2022/10/14 00:50:08;;;;;;;4.18;2.30;;;18.60;67.10;;;;;;2350304;53;21540;-77
2022/10/14 00:52:34;;;;;;;4.75;2.80;;;18.60;67.10;;;;;;2339968;53;20988;-76
2022/10/14 00:55:06;;;;;;;5.20;2.87;;;18.60;67.20;;;;;;2393672;53;20940;-76
2022/10/14 00:57:32;;;;;;;6.25;3.20;;;18.60;67.20;;;;;;2393445;53;21002;-76
2022/10/14 01:00:05;;;;;;;4.82;2.30;;;18.70;67.30;;;;;;2347911;53;21955;-76
2022/10/14 01:02:32;;;;;;;4.97;2.72;;;18.70;67.20;;;;;;2341145;53;22077;-76
2022/10/14 01:04:59;;;;;;;5.78;2.67;;;18.70;67.30;;;;;;2341634;53;20952;-76
2022/10/14 01:09:53;;;;;;;5.03;2.60;;;18.70;67.20;;;;;;2344154;53;21552;-77
2022/10/14 01:12:59;;;;;;;4.47;2.08;;;18.70;66.90;;;;;;2405162;53;20975;-77
2022/10/14 01:16:34;;;;;;;5.28;2.50;;;18.70;66.90;;;;;;2343934;53;20929;-77
2022/10/14 01:24:48;;;;;;;4.18;2.30;;;18.70;66.80;;;;;;2343311;53;21473;-76
2022/10/14 01:27:38;;;;;;;4.93;2.15;;;18.80;67.60;;;;;;2450859;53;21355;-76
2022/10/14 01:30:19;;;;;;;3.75;2.05;;;18.80;67.10;;;;;;2342140;53;21012;-77
2022/10/14 01:34:39;;;;;;;4.70;2.62;;;18.80;67.10;;;;;;2561702;53;21032;-76
2022/10/14 01:37:12;;;;;;;3.95;2.00;;;18.80;66.90;;;;;;2478089;53;21270;-76
2022/10/14 01:39:42;;;;;;;4.30;2.35;;;18.80;67.30;;;;;;2401697;53;20954;-76
2022/10/14 01:42:10;;;;;;;4.25;2.40;;;18.80;67.40;;;;;;2352567;53;23729;-76
2022/10/14 01:44:43;;;;;;;5.65;2.60;;;18.70;67.30;;;;;;2344538;54;20896;-76
2022/10/14 01:47:09;;;;;;;4.95;2.70;;;18.70;67.40;;;;;;2554928;53;21008;-76
2022/10/14 01:49:41;;;;;;;3.80;2.15;;;18.70;67.40;;;;;;2346796;53;20963;-76
2022/10/14 01:52:11;;;;;;;3.72;2.05;;;18.70;67.30;;;;;;2343311;53;20985;-76
2022/10/14 01:54:39;;;;;;;3.53;2.17;;;18.70;67.30;;;;;;2472911;53;21377;-76
2022/10/14 01:57:08;;;;;;;3.70;2.30;;;18.80;67.40;;;;;;2343458;53;21071;-77
2022/10/14 01:59:35;;;;;;;4.30;2.58;;;18.80;67.40;;;;;;2345527;53;21760;-77
2022/10/14 02:02:01;;;;;;;4.15;2.50;;;18.80;67.40;;;;;;2343114;54;20992;-76
2022/10/14 02:04:27;;;;;;;4.18;2.28;;;18.80;67.40;;;;;;2343638;54;20936;-76
2022/10/14 02:10:02;;;;;;;4.43;2.80;;;18.80;67.40;;;;;;2590203;53;21012;-76
2022/10/14 02:16:48;;;;;;;4.00;2.33;;;18.80;67.10;;;;;;2496132;53;21773;-76
2022/10/14 02:19:24;;;;;;;4.60;1.95;;;18.80;66.80;;;;;;2400099;53;20968;-76
2022/10/14 02:22:15;;;;;;;6.03;2.50;;;18.80;67.10;;;;;;2343538;53;21536;-76
2022/10/14 02:24:43;;;;;;;4.28;2.58;;;18.80;67.30;;;;;;2562434;53;20932;-77
2022/10/14 02:27:12;;;;;;;5.35;2.70;;;18.80;67.40;;;;;;2378621;53;21049;-76
2022/10/14 02:29:39;;;;;;;5.00;2.72;;;18.80;67.50;;;;;;2343531;53;20947;-76
2022/10/14 02:32:05;;;;;;;4.93;2.75;;;18.80;67.50;;;;;;2425986;53;20969;-76
2022/10/14 02:34:32;;;;;;;6.55;3.42;;;18.80;67.60;;;;;;2343432;53;20992;-76
2022/10/14 02:36:58;;;;;;;5.62;2.90;;;18.70;67.50;;;;;;2441354;53;20992;-76
2022/10/14 02:39:29;;;;;;;5.20;3.22;;;18.70;67.60;;;;;;2348419;53;21769;-77
2022/10/14 02:41:56;;;;;;;6.97;3.25;;;18.70;67.50;;;;;;2343493;53;21056;-76
2022/10/14 02:44:23;;;;;;;4.40;2.42;;;18.80;67.70;;;;;;2344409;53;20952;-76
2022/10/14 02:46:49;;;;;;;6.70;2.85;;;18.80;67.60;;;;;;2590076;53;20992;-77
2022/10/14 02:49:18;;;;;;;5.43;3.15;;;18.80;67.70;;;;;;2342338;53;21119;-77
2022/10/14 02:51:45;;;;;;;5.80;3.33;;;18.70;67.60;;;;;;2342512;53;20940;-76
2022/10/14 02:54:11;;;;;;;7.97;3.22;;;18.70;67.60;;;;;;2342049;53;21004;-76
2022/10/14 02:56:38;;;;;;;6.55;3.40;;;18.80;67.80;;;;;;2347512;53;21051;-76
2022/10/14 02:59:04;;;;;;;5.07;2.90;;;18.70;67.70;;;;;;2349046;53;21071;-77
2022/10/14 03:01:32;;;;;;;5.40;3.10;;;18.80;67.80;;;;;;2350297;53;20880;-76
2022/10/14 03:04:02;;;;;;;4.30;2.92;;;18.80;67.80;;;;;;2576504;52;21857;-76
2022/10/14 03:06:28;;;;;;;5.30;2.92;;;18.80;67.80;;;;;;2343901;54;21024;-77
2022/10/14 03:08:54;;;;;;;4.47;2.67;;;18.80;67.80;;;;;;2342807;53;20988;-77
2022/10/14 03:11:21;;;;;;;4.25;2.50;;;18.80;67.80;;;;;;2420381;53;20972;-77
2022/10/14 03:13:47;;;;;;;6.68;3.10;;;18.80;67.70;;;;;;2427732;53;21560;-76
2022/10/14 03:16:13;;;;;;;5.90;3.00;;;18.80;67.70;;;;;;2354043;53;21015;-76
2022/10/14 03:18:40;;;;;;;4.95;3.00;;;18.80;67.70;;;;;;2493694;52;20995;-77
2022/10/14 03:21:06;;;;;;;3.92;2.35;;;18.80;67.70;;;;;;2352127;53;21456;-77
2022/10/14 03:23:33;;;;;;;5.20;2.62;;;18.80;67.70;;;;;;2503412;53;21023;-76
2022/10/14 03:26:00;;;;;;;5.70;2.47;;;18.80;67.70;;;;;;2461262;53;20948;-76
2022/10/14 03:28:26;;;;;;;4.68;2.45;;;18.80;67.70;;;;;;2368022;53;21435;-76
2022/10/14 03:30:52;;;;;;;4.87;2.60;;;18.80;68.40;;;;;;2346577;53;20967;-76
2022/10/14 03:33:19;;;;;;;7.05;2.40;;;18.80;67.70;;;;;;2342710;53;21007;-77
2022/10/14 03:35:46;;;;;;;4.25;2.55;;;18.80;67.70;;;;;;2586251;53;20921;-76
2022/10/14 03:38:12;;;;;;;4.65;3.10;;;18.80;67.70;;;;;;2496420;53;21094;-77
2022/10/14 03:40:38;;;;;;;5.03;2.55;;;18.80;67.60;;;;;;2454832;52;20964;-76
2022/10/14 03:43:05;;;;;;;4.75;2.45;;;18.80;67.60;;;;;;2343212;53;20987;-77
2022/10/14 03:45:31;;;;;;;4.87;2.28;;;18.80;67.50;;;;;;2366856;53;21468;-76
2022/10/14 03:47:57;;;;;;;4.07;2.33;;;18.80;67.50;;;;;;2485743;52;21002;-76
2022/10/14 03:50:23;;;;;;;3.78;2.37;;;18.80;67.50;;;;;;2534631;53;21128;-76
2022/10/14 03:52:50;;;;;;;4.30;2.20;;;18.80;67.50;;;;;;2344203;53;20956;-77
2022/10/14 03:55:19;;;;;;;3.75;2.30;;;18.80;67.50;;;;;;2343121;53;21008;-76
2022/10/14 03:57:45;;;;;;;4.05;2.40;;;18.80;67.40;;;;;;2343598;54;21071;-77
2022/10/14 04:00:13;;;;;;;5.55;2.72;;;18.80;67.40;;;;;;2344299;54;20971;-76
2022/10/14 04:02:40;;;;;;;5.15;2.67;;;18.80;67.40;;;;;;2588861;53;20948;-77
2022/10/14 04:05:07;;;;;;;4.05;2.20;;;18.80;67.30;;;;;;2343738;53;20936;-77
2022/10/14 04:07:33;;;;;;;5.35;2.45;;;18.80;67.30;;;;;;2343802;53;21028;-76
2022/10/14 04:09:59;;;;;;;4.22;2.37;;;18.80;67.30;;;;;;2372325;53;21367;-77
2022/10/14 04:12:26;;;;;;;5.65;2.40;;;18.80;67.30;;;;;;2344903;53;21064;-76
2022/10/14 04:14:55;;;;;;;6.00;2.20;;;18.80;67.30;;;;;;2344121;54;20933;-77
2022/10/14 04:17:22;;;;;;;6.10;2.00;;;18.80;67.40;;;;;;2322742;54;20968;-76
2022/10/14 04:19:49;;;;;;;3.72;2.25;;;18.80;67.30;;;;;;2452063;53;20949;-76
2022/10/14 04:22:21;;;;;;;3.90;2.45;;;18.80;67.40;;;;;;2358926;53;21067;-77
2022/10/14 04:24:49;;;;;;;6.97;2.17;;;18.80;67.40;;;;;;2538959;53;21785;-76
2022/10/14 04:27:15;;;;;;;3.80;2.03;;;18.80;67.30;;;;;;2348481;53;20968;-76
2022/10/14 04:29:42;;;;;;;4.85;2.50;;;18.80;67.30;;;;;;2513594;53;20945;-77
2022/10/14 04:32:08;;;;;;;6.50;2.65;;;18.90;67.40;;;;;;2342282;53;21483;-76
2022/10/14 04:34:34;;;;;;;4.95;2.65;;;18.90;67.30;;;;;;2417157;53;20992;-76
2022/10/14 04:37:03;;;;;;;3.60;1.92;;;18.90;67.30;;;;;;2349621;53;21018;-76
2022/10/14 04:39:30;;;;;;;5.97;2.30;;;18.90;67.30;;;;;;2447551;52;21811;-77
2022/10/14 04:41:57;;;;;;;3.42;1.90;;;18.90;67.30;;;;;;2348558;53;21030;-76
2022/10/14 04:44:27;;;;;;;3.87;1.80;;;18.90;67.30;;;;;;2345119;53;20944;-77
2022/10/14 04:46:54;;;;;;;4.05;2.03;;;18.90;67.20;;;;;;2394337;53;20952;-76
2022/10/14 04:49:20;;;;;;;3.65;1.98;;;18.90;67.20;;;;;;2346409;53;22367;-76
2022/10/14 04:51:46;;;;;;;3.33;1.83;;;18.90;67.20;;;;;;2340765;53;21380;-76
2022/10/14 04:54:13;;;;;;;3.37;1.73;;;18.90;67.20;;;;;;2368286;53;21030;-76
2022/10/14 04:56:39;;;;;;;3.35;1.52;;;18.90;67.10;;;;;;2351580;53;21014;-76
2022/10/14 04:59:06;;;;;;;3.80;2.15;;;18.90;67.10;;;;;;2451546;53;20952;-77
2022/10/14 05:01:32;;;;;;;3.22;1.85;;;18.90;67.10;;;;;;2343570;53;21003;-77
2022/10/14 05:03:59;;;;;;;3.47;1.83;;;18.90;67.00;;;;;;2371215;53;20986;-76
2022/10/14 05:06:25;;;;;;;4.18;1.90;;;18.90;67.00;;;;;;2347144;53;21449;-76
2022/10/14 05:08:52;;;;;;;5.18;1.70;;;18.90;67.00;;;;;;2475251;52;21039;-76
2022/10/14 05:11:19;;;;;;;4.55;2.00;;;18.90;67.00;;;;;;2342288;53;21516;-77
2022/10/14 05:13:45;;;;;;;4.05;1.92;;;18.90;67.00;;;;;;2493394;53;20948;-76
2022/10/14 05:16:12;;;;;;;4.72;2.08;;;18.90;66.90;;;;;;2344135;54;20952;-77
2022/10/14 05:18:38;;;;;;;3.78;1.70;;;18.90;66.90;;;;;;2343849;54;20984;-76
2022/10/14 05:21:05;;;;;;;4.37;2.22;;;19.00;66.90;;;;;;2350395;53;20920;-77
2022/10/14 05:23:31;;;;;;;4.30;2.05;;;18.90;66.80;;;;;;2343817;53;21028;-76
2022/10/14 05:25:57;;;;;;;3.72;1.60;;;19.00;66.90;;;;;;2339831;54;20988;-76
2022/10/14 05:28:23;;;;;;;3.97;1.85;;;18.90;66.70;;;;;;2343625;54;21740;-76
2022/10/14 05:30:50;;;;;;;4.03;1.87;;;18.90;66.70;;;;;;2344013;53;21056;-76
2022/10/14 05:33:16;;;;;;;3.37;1.90;;;18.90;66.60;;;;;;2342558;53;21862;-77
2022/10/14 05:35:43;;;;;;;3.67;1.60;;;18.90;66.60;;;;;;2367639;53;20908;-76
2022/10/14 05:38:23;;;;;;;3.90;1.80;;;18.90;66.60;;;;;;2343668;53;20984;-77
2022/10/14 05:40:53;;;;;;;5.07;1.70;;;18.90;66.60;;;;;;2344156;54;20936;-76
2022/10/14 05:43:19;;;;;;;3.85;1.73;;;18.90;66.50;;;;;;2346615;54;20996;-76
2022/10/14 05:45:46;;;;;;;3.42;1.60;;;18.90;66.60;;;;;;2344539;53;20992;-77
2022/10/14 05:48:15;;;;;;;3.25;1.70;;;18.90;66.60;;;;;;2351158;53;20972;-77
2022/10/14 05:50:43;;;;;;;3.70;2.00;;;18.90;66.50;;;;;;2485551;53;20929;-77
2022/10/14 05:53:10;;;;;;;4.07;2.12;;;18.90;66.50;;;;;;2375669;53;21026;-76
2022/10/14 05:55:36;;;;;;;4.10;1.70;;;18.90;66.40;;;;;;2588425;52;20953;-76
2022/10/14 05:58:02;;;;;;;3.12;1.77;;;18.90;66.40;;;;;;2343579;54;21004;-77
2022/10/14 06:00:30;;;;;;;3.40;1.55;;;18.90;66.40;;;;;;2347574;53;21058;-76
2022/10/14 06:02:57;;;;;;;6.37;1.73;;;18.90;66.40;;;;;;2432151;52;20932;-76
2022/10/14 06:05:23;;;;;;;4.45;1.60;;;18.90;66.40;;;;;;2343133;54;20940;-76
2022/10/14 06:07:50;;;;;;;3.25;1.80;;;18.90;66.40;;;;;;2343917;53;21370;-77
2022/10/14 06:10:16;;;;;;;5.20;2.08;;;18.90;66.30;;;;;;2344335;53;21104;-76
2022/10/14 06:12:42;;;;;;;5.20;1.75;;;18.90;66.20;;;;;;2350517;53;21002;-76
2022/10/14 06:15:09;;;;;;;3.95;2.00;;;18.90;66.30;;;;;;2366966;53;21692;-77
2022/10/14 06:17:35;;;;;;;5.65;2.10;;;18.90;66.30;;;;;;2341745;53;21868;-76
2022/10/14 06:20:02;;;;;;;3.83;1.67;;;18.90;66.30;;;;;;2347367;53;20963;-79
2022/10/14 06:22:28;;;;;;;6.68;2.33;;;18.90;66.30;;;;;;2342873;53;20920;-77
2022/10/14 06:24:54;;;;;;;4.22;2.28;;;18.90;66.20;;;;;;2399173;53;20931;-77
2022/10/14 06:27:23;;;;;;;4.85;3.03;;;18.90;66.20;;;;;;2343418;53;21052;-76
2022/10/14 06:29:49;;;;;;;7.35;3.35;;;18.90;66.20;;;;;;2351108;53;20985;-77
2022/10/14 06:32:15;;;;;;;6.57;3.60;;;18.90;66.10;;;;;;2418133;53;21560;-76
2022/10/14 06:34:42;;;;;;;7.30;4.25;;;18.80;66.00;;;;;;2521753;53;20904;-76
2022/10/14 06:37:08;;;;;;;5.97;3.72;;;18.80;66.10;;;;;;2344157;54;20964;-76
2022/10/14 06:39:34;;;;;;;16.20;3.95;;;18.80;66.30;;;;;;2585380;53;20970;-76
2022/10/14 06:42:04;;;;;;;5.40;3.10;;;18.80;66.40;;;;;;2344297;53;21028;-77
2022/10/14 06:44:31;;;;;;;6.30;3.65;;;18.80;66.40;;;;;;2589417;53;21480;-77
2022/10/14 06:46:59;;;;;;;7.00;3.60;;;18.80;66.50;;;;;;2497055;52;20928;-76
2022/10/14 06:49:29;;;;;;;8.02;3.62;;;18.80;66.60;;;;;;2341871;53;21866;-76
2022/10/14 06:51:55;;;;;;;5.78;3.95;;;18.80;66.60;;;;;;2342115;53;20943;-76
2022/10/14 06:54:23;;;;;;;8.05;3.85;;;18.80;66.60;;;;;;2347279;53;20940;-77
2022/10/14 06:56:49;;;;;;;10.05;3.67;;;18.80;66.50;;;;;;2340870;53;21443;-76
2022/10/14 06:59:15;;;;;;;5.45;3.10;;;18.80;66.50;;;;;;2469608;53;20928;-76
2022/10/14 07:01:42;;;;;;;9.05;4.03;;;18.80;66.60;;;;;;2344306;53;20905;-76
2022/10/14 07:04:08;;;;;;;8.52;3.97;;;18.80;66.80;;;;;;2590648;53;21048;-76
2022/10/14 07:06:37;;;;;;;7.43;4.30;;;18.80;66.90;;;;;;2343506;54;21020;-76
2022/10/14 07:09:04;;;;;;;7.87;3.70;;;18.80;67.00;;;;;;2351338;53;20968;-76
2022/10/14 07:11:30;;;;;;;5.70;3.45;;;18.80;67.10;;;;;;2344736;53;21024;-76
2022/10/14 07:13:57;;;;;;;6.75;3.30;;;18.80;67.20;;;;;;2342409;53;20995;-76
2022/10/14 07:16:24;;;;;;;4.82;2.70;;;18.80;67.30;;;;;;2348966;53;21687;-76
2022/10/14 07:18:50;;;;;;;5.05;2.65;;;18.80;67.30;;;;;;2345881;53;20936;-77
2022/10/14 07:21:16;;;;;;;6.00;2.90;;;18.80;67.40;;;;;;2343818;53;20940;-76
2022/10/14 07:23:43;;;;;;;4.65;2.30;;;18.90;67.50;;;;;;2368489;53;20895;-77
2022/10/14 07:26:09;;;;;;;3.22;1.67;;;18.90;67.50;;;;;;2362543;53;21693;-76
2022/10/14 07:28:37;;;;;;;4.40;1.85;;;18.90;67.40;;;;;;2344667;53;20911;-76
2022/10/14 07:31:08;;;;;;;4.20;2.10;;;18.90;67.30;;;;;;2343927;53;21773;-76
2022/10/14 07:33:35;;;;;;;2.90;1.27;;;18.90;67.20;;;;;;2343966;53;21032;-77
2022/10/14 07:36:06;;;;;;;3.62;1.23;;;18.90;67.20;;;;;;2344048;53;21011;-76
2022/10/14 07:38:33;;;;;;;2.22;1.12;;;19.00;67.20;;;;;;2347210;53;20943;-76
2022/10/14 07:41:00;;;;;;;2.83;1.37;;;19.00;67.10;;;;;;2376936;52;20991;-77
2022/10/14 07:43:26;;;;;;;3.70;1.42;;;19.00;67.10;;;;;;2343042;53;21012;-76
2022/10/14 07:45:59;;;;;;;3.28;1.25;;;19.00;67.10;;;;;;2489615;53;21004;-76
2022/10/14 07:48:27;;;;;;;3.70;1.23;;;19.10;67.20;;;;;;2591128;53;20952;-77
2022/10/14 07:50:58;;;;;;;4.65;1.40;;;19.10;67.20;;;;;;2343660;54;21000;-77
2022/10/14 07:53:25;;;;;;;3.33;1.30;;;19.10;67.20;;;;;;2363911;53;20944;-76
2022/10/14 07:55:51;;;;;;;3.45;1.42;;;19.10;67.30;;;;;;2343969;53;20992;-76
2022/10/14 07:58:22;;;;;;;3.60;1.37;;;19.10;67.20;;;;;;2361022;53;21238;-77
2022/10/14 08:00:49;;;;;;;4.25;1.42;;;19.20;67.20;;;;;;2346479;53;20995;-76
2022/10/14 08:03:16;;;;;;;4.45;1.60;;;19.20;67.20;;;;;;2463588;53;20996;-76
2022/10/14 08:05:42;;;;;;;3.60;1.60;;;19.20;67.20;;;;;;2338458;54;21358;-76
2022/10/14 08:08:09;;;;;;;3.45;1.37;;;19.20;67.90;;;;;;2344113;54;21051;-76
2022/10/14 08:10:35;;;;;;;2.60;1.40;;;19.30;67.20;;;;;;2343553;54;21867;-76
2022/10/14 08:13:02;;;;;;;3.22;1.40;;;19.30;67.30;;;;;;2509162;53;20993;-76
2022/10/14 08:15:31;;;;;;;3.22;1.45;;;19.30;67.20;;;;;;2344920;53;21012;-76
2022/10/14 08:17:57;;;;;;;4.07;1.60;;;19.30;67.10;;;;;;2342117;53;20956;-76
2022/10/14 08:20:25;;;;;;;4.22;1.60;;;19.30;67.00;;;;;;2346017;53;21789;-76
2022/10/14 08:22:51;;;;;;;2.92;1.40;;;19.40;67.10;;;;;;2441394;53;21052;-76
2022/10/14 08:25:17;;;;;;;4.47;1.40;;;19.30;66.90;;;;;;2345358;53;21445;-76
2022/10/14 08:27:44;;;;;;;3.55;1.20;;;19.40;67.00;;;;;;2342500;53;21008;-76
2022/10/14 08:30:10;;;;;;;3.25;1.30;;;19.40;67.00;;;;;;2344380;53;20980;-76
2022/10/14 08:32:37;;;;;;;4.72;1.62;;;19.40;67.00;;;;;;2345599;53;20971;-76
2022/10/14 08:35:05;;;;;;;4.55;1.25;;;19.40;67.00;;;;;;2363971;53;21912;-76
2022/10/14 08:37:31;;;;;;;2.95;1.30;;;19.40;67.00;;;;;;2456357;52;21020;-76
2022/10/14 08:39:58;;;;;;;3.58;1.42;;;19.40;67.00;;;;;;2365881;53;20918;-77
2022/10/14 08:43:30;;;;;;;2.87;1.60;;;19.50;67.10;;;;;;2463376;52;20948;-76
2022/10/14 08:46:02;;;;;;;2.85;1.25;;;19.50;66.80;;;;;;2345617;53;21806;-77
2022/10/14 08:48:29;;;;;;;3.80;1.65;;;19.50;67.10;;;;;;2364961;53;21075;-76
2022/10/14 08:51:04;;;;;;;5.70;2.85;;;19.50;67.20;;;;;;2431167;53;20958;-77
2022/10/14 08:53:43;;;;;;;4.95;2.45;;;19.50;67.20;;;;;;2345190;53;20912;-77
2022/10/14 08:56:10;;;;;;;4.62;2.03;;;19.50;67.30;;;;;;2343616;53;21005;-76
2022/10/14 08:58:49;;;;;;;5.60;3.53;;;19.50;67.30;;;;;;2344090;53;21904;-76
2022/10/14 09:01:32;;;;;;;4.85;2.83;;;19.60;67.20;;;;;;2346188;54;20988;-76
2022/10/14 09:04:02;;;;;;;4.53;2.33;;;19.60;67.10;;;;;;2472117;53;20943;-76
2022/10/14 09:06:33;;;;;;;5.03;1.55;;;19.60;67.30;;;;;;2361644;53;21903;-76
2022/10/14 09:11:59;;;;;;;4.07;1.77;;;19.60;67.30;;;;;;2571303;53;20976;-76
2022/10/14 09:14:30;;;;;;;;;;;19.70;67.00;;;;;;2350714;53;20923;-77
2022/10/14 09:17:02;;;;;;;4.03;1.10;;;19.70;66.90;;;;;;2512912;52;20079;-76
2022/10/14 09:19:36;;;;;;;4.22;1.40;;;19.80;67.30;;;;;;2357783;53;20928;-78
2022/10/14 09:22:02;;;;;;;13.23;2.42;;;19.80;67.30;;;;;;2343863;53;20968;-77
2022/10/14 09:24:36;;;;;;;3.58;1.40;;;19.80;67.40;;;;;;2343393;53;21094;-76
2022/10/14 09:27:10;;;;;;;2.78;1.17;;;19.80;67.30;;;;;;2520414;53;20947;-76
2022/10/14 09:29:59;;;;;;;3.08;1.33;;;19.80;67.30;;;;;;2432407;52;20988;-77
2022/10/14 09:32:39;;;;;;;6.00;1.30;;;19.90;67.40;;;;;;2350741;53;20946;-76
2022/10/14 09:41:54;;;;;;;2.45;1.15;;;19.90;67.20;;;;;;2327499;54;21015;-77
2022/10/14 09:44:24;;;;;;;2.45;0.90;;;20.10;67.00;;;;;;2346923;53;21058;-77
2022/10/14 09:46:57;;;;;;;2.55;1.12;;;20.10;67.30;;;;;;2345454;53;20939;-79
2022/10/14 09:49:45;;;;;;;3.28;1.20;;;20.10;67.10;;;;;;2373666;53;20925;-77
2022/10/14 09:52:21;;;;;;;3.83;1.30;;;20.20;67.00;;;;;;2486246;52;21485;-77
2022/10/14 09:54:54;;;;;;;2.62;1.17;;;20.20;67.00;;;;;;2344683;54;20932;-77
2022/10/14 09:57:22;;;;;;;1.92;0.93;;;20.20;67.00;;;;;;2345776;53;20987;-76
2022/10/14 09:59:59;;;;;;;4.90;1.20;;;20.30;67.30;;;;;;2344239;53;20936;-76
2022/10/14 10:02:35;;;;;;;3.50;1.23;;;20.30;67.00;;;;;;2346449;53;21004;-76
2022/10/14 10:05:24;;;;;;;3.83;1.40;;;20.40;67.10;;;;;;2343597;53;21351;-76
2022/10/14 10:08:13;;;;;;;2.35;1.02;;;20.40;66.70;;;;;;2343336;53;21755;-76
2022/10/14 10:10:40;;;;;;;2.65;1.08;;;20.50;67.00;;;;;;2342868;54;21019;-76
2022/10/14 10:13:22;;;;;;;2.80;1.00;;;20.50;67.20;;;;;;2391699;53;21488;-76
2022/10/14 10:16:02;;;;;;;3.90;1.23;;;20.60;66.80;;;;;;2343755;54;21031;-76
2022/10/14 10:18:28;;;;;;;2.42;1.20;;;20.60;66.80;;;;;;2343590;53;20932;-76
2022/10/14 10:21:06;;;;;;;3.28;1.20;;;20.60;67.10;;;;;;2345488;53;21422;-76
2022/10/14 10:23:33;;;;;;;3.58;1.23;;;20.70;66.90;;;;;;2356223;53;20961;-76
2022/10/14 10:26:24;;;;;;;2.28;1.10;;;20.70;67.10;;;;;;2343757;54;20989;-76
2022/10/14 10:28:51;;;;;;;2.47;0.93;;;20.80;66.40;;;;;;2343833;53;20992;-76
2022/10/14 10:31:54;;;;;;;4.72;1.23;;;20.80;66.80;;;;;;2383867;53;20991;-76
2022/10/14 10:34:52;;;;;;;4.20;1.10;;;20.90;66.20;;;;;;2343613;53;21000;-76
2022/10/14 10:37:24;;;;;;;4.37;0.95;;;20.90;66.30;;;;;;2344080;54;22164;-76
2022/10/14 10:40:17;;;;;;;;;;;21.00;66.40;;;;;;2346758;53;20945;-76
2022/10/14 10:43:27;;;;;;;3.70;0.90;;;21.00;65.90;;;;;;2345097;53;20067;-76
2022/10/14 10:46:20;;;;;;;6.72;2.08;;;21.10;66.30;;;;;;2347418;53;21589;-76
2022/10/14 10:50:46;;;;;;;1.95;0.82;;;21.10;66.10;;;;;;2365581;53;21079;-76
2022/10/14 10:53:28;;;;;;;2.55;0.82;;;21.20;65.70;;;;;;2344954;53;20963;-76
2022/10/14 10:59:11;;;;;;;5.03;1.08;;;21.20;66.10;;;;;;2489366;52;20968;-76
2022/10/14 11:02:18;;;;;;;2.08;0.93;;;21.20;65.70;;;;;;2329177;53;20988;-76
2022/10/14 11:04:55;;;;;;;1.62;0.60;;;21.30;65.60;;;;;;2383152;53;21011;-76
2022/10/14 11:12:11;;;;;;;3.53;1.05;;;21.30;65.60;;;;;;2344622;53;20951;-76
2022/10/14 11:17:52;;;;;;;2.40;0.80;;;21.40;65.90;;;;;;2344921;53;20961;-76
2022/10/14 11:21:57;;;;;;;1.95;1.00;;;21.50;65.60;;;;;;2343714;54;20997;-75
2022/10/14 11:27:56;;;;;;;3.50;1.02;;;21.50;65.40;;;;;;2379532;53;20936;-75
2022/10/14 11:35:37;;;;;;;1.70;0.82;;;21.50;65.20;;;;;;2371199;53;20911;-76
2022/10/14 11:39:53;;;;;;;1.90;0.80;;;21.50;65.40;;;;;;2468362;53;20988;-77
2022/10/14 11:44:01;;;;;;;2.55;1.15;;;21.60;65.30;;;;;;2324521;54;20961;-79
2022/10/14 11:46:34;;;;;;;2.00;0.80;;;21.60;65.50;;;;;;2347767;53;20919;-77
2022/10/14 11:49:17;;;;;;;2.22;0.95;;;21.60;65.80;;;;;;2343336;53;20944;-77
2022/10/14 11:51:52;;;;;;;2.22;0.95;;;21.60;65.60;;;;;;2405036;53;20948;-76
2022/10/14 11:54:27;;;;;;;4.30;1.10;;;21.60;65.70;;;;;;2347222;53;21035;-76
2022/10/14 11:57:10;;;;;;;4.25;1.17;;;21.60;65.70;;;;;;2346763;53;21035;-76
2022/10/14 11:59:45;;;;;;;2.20;1.00;;;21.60;65.70;;;;;;2343574;53;21011;-77
2022/10/14 12:04:06;;;;;;;2.30;0.90;;;21.60;65.80;;;;;;2472115;53;20960;-76
2022/10/14 12:06:38;;;;;;;2.55;1.10;;;21.70;65.70;;;;;;2466103;53;20984;-76
2022/10/14 12:09:25;;;;;;;2.40;0.93;;;21.70;65.70;;;;;;2347023;53;20879;-77
2022/10/14 12:12:00;;;;;;;2.40;1.10;;;21.70;65.40;;;;;;2346589;53;20999;-76
2022/10/14 12:14:44;;;;;;;2.50;1.00;;;21.80;66.20;;;;;;2343568;53;21011;-78
2022/10/14 12:17:23;;;;;;;3.70;1.25;;;21.80;65.40;;;;;;2369563;53;20940;-76
2022/10/14 12:19:51;;;;;;;2.40;0.90;;;21.80;65.80;;;;;;2343967;53;21115;-76
2022/10/14 12:22:24;;;;;;;3.03;0.95;;;21.80;65.70;;;;;;2360718;53;21007;-77
2022/10/14 12:25:06;;;;;;;2.08;1.00;;;21.90;65.60;;;;;;2346451;53;20919;-76
2022/10/14 12:27:32;;;;;;;2.70;1.00;;;21.90;65.50;;;;;;2343833;54;20936;-78
2022/10/14 12:29:59;;;;;;;2.12;1.00;;;21.90;65.80;;;;;;2405903;53;20947;-76
2022/10/14 12:32:26;;;;;;;1.55;0.77;;;21.90;65.60;;;;;;2341212;53;20896;-76
2022/10/14 12:35:02;;;;;;;2.12;1.10;;;22.00;65.60;;;;;;2456417;53;20993;-76
2022/10/14 12:37:48;;;;;;;1.98;0.90;;;22.00;65.00;;;;;;2386242;53;20934;-76
2022/10/14 12:40:23;;;;;;;1.62;0.70;;;22.00;64.70;;;;;;2344614;53;20955;-77
2022/10/14 12:43:01;;;;;;;2.47;1.08;;;22.00;65.30;;;;;;2347228;53;20928;-76
2022/10/14 12:45:31;;;;;;;2.53;1.00;;;22.00;64.80;;;;;;2341507;53;20991;-76
2022/10/14 12:48:08;;;;;;;1.77;0.77;;;22.00;65.10;;;;;;2341374;53;21771;-76
2022/10/14 12:50:36;;;;;;;2.30;0.90;;;22.00;65.00;;;;;;2339892;53;21007;-76
2022/10/14 12:53:25;;;;;;;1.87;0.90;;;22.00;65.10;;;;;;2343729;54;21457;-76
2022/10/14 12:55:54;;;;;;;2.28;1.10;;;22.00;65.10;;;;;;2345132;54;20952;-76
2022/10/14 12:58:40;;;;;;;2.35;1.00;;;22.00;65.10;;;;;;2343658;53;20920;-77
2022/10/14 13:01:15;;;;;;;3.05;0.93;;;22.00;64.90;;;;;;2343852;53;20944;-76
2022/10/14 13:03:55;;;;;;;2.67;0.90;;;21.90;65.00;;;;;;2443501;53;20952;-76
2022/10/14 13:06:38;;;;;;;3.37;0.88;;;21.90;65.00;;;;;;2345066;53;20996;-77
2022/10/14 13:09:37;;;;;;;2.58;1.02;;;21.90;65.10;;;;;;2341935;53;20983;-76
2022/10/14 13:12:49;;;;;;;2.10;0.98;;;21.90;64.90;;;;;;2346097;53;21824;-77
2022/10/14 13:15:50;;;;;;;1.58;0.68;;;21.80;65.00;;;;;;2347679;53;22060;-76
2022/10/14 13:20:26;;;;;;;2.30;1.00;;;21.80;65.10;;;;;;2394336;53;20937;-77
2022/10/14 13:22:53;;;;;;;2.60;1.10;;;21.80;65.90;;;;;;2590317;52;20932;-76
2022/10/14 13:25:19;;;;;;;3.08;0.90;;;21.80;65.70;;;;;;2586230;52;20961;-77
2022/10/14 13:28:02;;;;;;;3.35;0.95;;;21.70;65.70;;;;;;2346644;53;20988;-76
2022/10/14 13:30:48;;;;;;;2.55;0.75;;;21.70;65.70;;;;;;2342893;53;20996;-77
2022/10/14 13:33:20;;;;;;;2.40;0.80;;;21.70;65.80;;;;;;2590022;52;20935;-77
2022/10/14 13:36:50;;;;;;;2.30;0.68;;;21.70;66.00;;;;;;2346669;52;21044;-77
2022/10/14 13:39:16;;;;;;;2.12;0.82;;;21.70;65.70;;;;;;2346994;54;21473;-76
2022/10/14 13:41:44;;;;;;;3.60;1.10;;;21.60;66.10;;;;;;2368754;53;21091;-77
2022/10/14 13:44:12;;;;;;;2.30;0.93;;;21.60;66.20;;;;;;2361615;53;21028;-77
2022/10/14 13:46:41;;;;;;;3.00;1.33;;;21.60;66.30;;;;;;2445845;53;21035;-76
2022/10/14 13:49:11;;;;;;;1.90;0.70;;;21.60;66.40;;;;;;2347643;54;20924;-77
2022/10/14 13:52:22;;;;;;;2.35;1.00;;;21.60;66.60;;;;;;2523670;52;21004;-77
2022/10/14 13:55:04;;;;;;;1.90;0.80;;;21.60;66.30;;;;;;2298081;54;2810354;-77
2022/10/14 13:57:33;;;;;;;2.72;1.10;;;21.60;66.60;;;;;;2344140;53;20940;-77
2022/10/14 14:00:33;;;;;;;2.58;0.70;;;21.60;66.70;;;;;;2343013;53;21536;-77
2022/10/14 14:03:22;;;;;;;1.50;0.70;;;21.60;66.60;;;;;;2352068;53;21051;-77
2022/10/14 14:05:50;;;;;;;2.47;0.70;;;21.60;66.80;;;;;;2371287;52;20978;-76
2022/10/14 14:08:28;;;;;;;2.53;0.80;;;21.60;67.00;;;;;;2347621;53;21014;-76
2022/10/14 14:11:33;;;;;;;2.80;0.80;;;21.60;66.90;;;;;;2344383;53;20960;-76